MA83 weather

Hubbard Regional Hospital Heliport
Webster, Massachusetts, United States

Public forecast

Using degrees Fahrenheit for public forecast. Weather courtesy of forecast.io.

METAR (pilot weather report)

Closest report is Worcester Regional Airport, 14.4 nm (26.7 km) N. Retrieved 2019/09/16 00:54 UTC (41 minutes ago):

KORH 160054Z 25005KT 10SM CLR 17/13 A3007 RMK AO2 RAE02 SLP183 P0000 T01720128 $

TAF (pilot weather forecast)

Forecast is more than 12 hours old.

Closest forecast is Worcester Regional Airport, 14.4 nm (26.7 km) N. Retrieved 2019/09/15 00:30 UTC (1 day ago):

TAF KORH 152327Z 1600/1624 27005KT P6SM SCT250 FM160500 30005KT P6SM SCT120 FM161000 33004KT P6SM BKN070 FM161700 29004KT P6SM BKN070 FM161900 29006KT P6SM SCT250 FM162300 32006KT P6SM FEW250